createdAt,value
2022-07-25T00:03:57.290Z,5.53
2022-07-25T00:09:02.794Z,5.67
2022-07-25T00:14:11.194Z,5.97
2022-07-25T00:19:16.533Z,5.65
2022-07-25T00:24:21.915Z,5.87
2022-07-25T00:29:29.917Z,5.97
2022-07-25T00:34:35.339Z,5.97
2022-07-25T00:39:40.749Z,6.00
2022-07-25T00:44:48.835Z,6.23
2022-07-25T00:49:54.734Z,6.32
2022-07-25T00:55:00.117Z,6.03
2022-07-25T01:00:10.142Z,6.47
2022-07-25T01:05:15.909Z,6.55
2022-07-25T01:10:21.247Z,6.10
2022-07-25T01:15:29.457Z,5.53
2022-07-25T01:20:38.089Z,6.25
2022-07-25T01:25:43.379Z,5.85
2022-07-25T01:30:49.198Z,5.37
2022-07-25T01:35:59.285Z,5.93
2022-07-25T01:41:04.681Z,6.80
2022-07-25T01:46:10.286Z,6.38
2022-07-25T01:51:20.451Z,6.10
2022-07-25T01:56:26.103Z,6.25
2022-07-25T02:01:31.494Z,5.63
2022-07-25T02:06:41.557Z,6.00
2022-07-25T02:11:46.891Z,6.13
2022-07-25T02:16:53.267Z,6.13
2022-07-25T02:22:03.007Z,5.87
2022-07-25T02:27:08.812Z,5.93
2022-07-25T02:32:14.186Z,6.25
2022-07-25T02:37:22.528Z,5.70
2022-07-25T02:42:27.936Z,5.90
2022-07-25T02:47:33.556Z,6.63
2022-07-25T02:52:41.535Z,5.75
2022-07-25T02:57:46.926Z,6.03
2022-07-25T03:02:52.489Z,6.15
2022-07-25T03:08:00.375Z,5.47
2022-07-25T03:13:05.922Z,5.97
2022-07-25T03:18:11.709Z,6.10
2022-07-25T03:23:22.467Z,5.40
2022-07-25T03:28:28.008Z,5.78
2022-07-25T03:33:36.490Z,5.93
2022-07-25T03:38:44.509Z,5.93
2022-07-25T03:43:49.886Z,6.32
2022-07-25T03:48:55.640Z,6.30
2022-07-25T03:54:07.623Z,6.40
2022-07-25T03:59:18.828Z,5.82
2022-07-25T04:04:24.075Z,6.27
2022-07-25T04:09:33.628Z,6.07
2022-07-25T04:14:39.248Z,5.90
2022-07-25T04:19:44.689Z,6.05
2022-07-25T04:24:53.359Z,5.70
2022-07-25T04:29:59.029Z,5.75
2022-07-25T04:35:04.710Z,5.80
2022-07-25T04:40:14.416Z,6.67
2022-07-25T04:45:20.094Z,6.32
2022-07-25T04:50:25.605Z,5.93
2022-07-25T04:55:33.600Z,6.33
2022-07-25T05:00:39.206Z,6.13
2022-07-25T05:05:44.610Z,6.50
2022-07-25T05:10:54.078Z,6.35
2022-07-25T05:15:59.545Z,5.97
2022-07-25T05:21:05.007Z,6.82
2022-07-25T05:26:13.046Z,6.07
2022-07-25T05:31:18.522Z,6.07
2022-07-25T05:36:23.927Z,6.88
2022-07-25T05:41:31.990Z,5.75
2022-07-25T05:46:37.788Z,6.10
2022-07-25T05:51:43.166Z,5.97
2022-07-25T05:56:51.285Z,5.82
2022-07-25T06:01:57.977Z,6.10
2022-07-25T06:07:03.526Z,5.60
2022-07-25T06:12:11.837Z,6.03
2022-07-25T06:17:17.135Z,6.57
2022-07-25T06:22:22.553Z,6.27
2022-07-25T06:27:30.499Z,6.43
2022-07-25T06:32:35.861Z,5.78
2022-07-25T06:37:42.016Z,5.87
2022-07-25T06:42:50.889Z,6.00
2022-07-25T06:47:56.350Z,6.22
2022-07-25T06:53:02.207Z,6.07
2022-07-25T06:58:10.199Z,5.90
2022-07-25T07:03:15.666Z,5.93
2022-07-25T07:08:21.046Z,5.88
2022-07-25T07:13:30.305Z,6.67
2022-07-25T07:18:35.612Z,6.55
2022-07-25T07:23:41.142Z,6.65
2022-07-25T07:28:49.326Z,6.47
2022-07-25T07:33:54.831Z,6.67
2022-07-25T07:39:00.408Z,6.43
2022-07-25T07:44:08.846Z,6.70
2022-07-25T07:49:14.203Z,6.13
2022-07-25T07:54:31.918Z,6.35
2022-07-25T07:59:56.167Z,6.35
2022-07-25T08:05:01.880Z,6.70
2022-07-25T08:10:08.387Z,6.57
2022-07-25T08:15:17.858Z,5.90
2022-07-25T08:20:37.872Z,5.80
2022-07-25T08:25:44.278Z,5.93
2022-07-25T08:30:52.506Z,5.85
2022-07-25T08:35:59.134Z,5.18
2022-07-25T08:41:07.591Z,5.47
2022-07-25T08:46:16.915Z,5.55
2022-07-25T08:51:22.981Z,5.05
2022-07-25T08:56:28.361Z,5.17
2022-07-25T09:01:36.647Z,5.20
2022-07-25T09:06:52.442Z,5.32
2022-07-25T09:11:58.665Z,6.17
2022-07-25T09:17:22.546Z,5.20
2022-07-25T09:22:30.432Z,5.53
2022-07-25T09:27:37.676Z,5.50
2022-07-25T09:32:45.791Z,5.43
2022-07-25T09:37:51.100Z,5.40
2022-07-25T09:42:56.877Z,5.72
2022-07-25T09:48:07.374Z,5.93
2022-07-25T09:53:12.832Z,5.55
2022-07-25T09:58:18.195Z,5.80
2022-07-25T10:03:36.708Z,5.37
2022-07-25T10:08:44.109Z,6.27
2022-07-25T10:13:49.873Z,6.43
2022-07-25T10:18:59.764Z,6.30
2022-07-25T10:24:07.773Z,5.23
2022-07-25T10:29:15.153Z,5.30
2022-07-25T10:34:31.878Z,4.40
2022-07-25T10:39:41.935Z,4.17
2022-07-25T10:44:49.367Z,3.42
2022-07-25T10:50:34.837Z,3.47
2022-07-25T10:55:33.104Z,3.40
2022-07-25T11:00:46.309Z,4.03
2022-07-25T11:05:54.825Z,4.40
2022-07-25T11:11:01.813Z,4.22
2022-07-25T11:16:08.299Z,3.73
2022-07-25T11:21:16.292Z,3.60
2022-07-25T11:26:21.664Z,4.10
2022-07-25T11:31:27.911Z,3.97
2022-07-25T11:36:36.532Z,3.72
2022-07-25T11:41:41.966Z,3.70
2022-07-25T11:46:47.979Z,3.10
2022-07-25T11:51:56.473Z,3.20
2022-07-25T11:57:01.814Z,2.88
2022-07-25T12:02:07.337Z,3.30
2022-07-25T12:07:16.397Z,3.33
2022-07-25T12:12:21.752Z,3.30
2022-07-25T12:17:27.269Z,3.63
2022-07-25T12:22:35.444Z,3.37
2022-07-25T12:27:42.883Z,3.60
2022-07-25T12:32:49.211Z,3.33
2022-07-25T12:37:57.410Z,3.20
2022-07-25T12:43:04.240Z,3.07
2022-07-25T12:48:10.138Z,2.88
2022-07-25T12:53:18.113Z,3.05
2022-07-25T12:58:23.412Z,2.50
2022-07-25T13:03:28.790Z,2.92
2022-07-25T13:08:38.086Z,2.50
2022-07-25T13:13:43.496Z,3.10
2022-07-25T13:18:49.383Z,3.03
2022-07-25T13:23:57.293Z,2.88
2022-07-25T13:29:03.298Z,2.70
2022-07-25T13:34:10.184Z,2.47
2022-07-25T13:39:18.644Z,2.42
2022-07-25T13:44:25.347Z,2.63
2022-07-25T13:49:30.906Z,2.40
2022-07-25T13:54:38.968Z,2.40
2022-07-25T13:59:44.296Z,2.42
2022-07-25T14:04:49.652Z,2.00
2022-07-25T14:09:57.755Z,2.28
2022-07-25T14:15:03.106Z,2.30
2022-07-25T14:20:13.199Z,2.30
2022-07-25T14:25:21.221Z,2.10
2022-07-25T14:30:26.635Z,1.80
2022-07-25T14:35:32.758Z,2.53
2022-07-25T14:40:41.426Z,2.10
2022-07-25T14:45:46.797Z,2.10
2022-07-25T14:50:52.171Z,1.95
2022-07-25T14:56:01.092Z,2.40
2022-07-25T15:01:06.596Z,2.63
2022-07-25T15:06:12.711Z,2.30
2022-07-25T15:11:20.806Z,2.23
2022-07-25T15:16:26.389Z,2.63
2022-07-25T15:21:31.922Z,2.72
2022-07-25T15:26:40.268Z,2.38
2022-07-25T15:31:46.242Z,2.40
2022-07-25T15:36:52.329Z,2.67
2022-07-25T15:42:00.459Z,2.25
2022-07-25T15:47:06.164Z,2.43
2022-07-25T15:52:11.544Z,1.80
2022-07-25T15:57:19.741Z,1.90
2022-07-25T16:02:25.677Z,1.67
2022-07-25T16:07:31.207Z,1.70
2022-07-25T16:12:40.588Z,1.77
2022-07-25T16:17:46.085Z,1.58
2022-07-25T16:22:55.884Z,1.83
2022-07-25T16:28:03.782Z,1.73
2022-07-25T16:33:09.785Z,1.52
2022-07-25T16:38:15.675Z,1.70
2022-07-25T16:43:23.945Z,1.52
2022-07-25T16:48:29.412Z,1.80
2022-07-25T16:53:36.604Z,2.00
2022-07-25T16:58:44.764Z,1.63
2022-07-25T17:03:50.034Z,1.73
2022-07-25T17:08:55.377Z,2.10
2022-07-25T17:14:04.481Z,1.90
2022-07-25T17:19:10.611Z,1.73
2022-07-25T17:24:16.181Z,2.55
2022-07-25T17:29:24.214Z,1.67
2022-07-25T17:34:29.726Z,2.10
2022-07-25T17:39:36.256Z,1.90
2022-07-25T17:44:44.243Z,1.63
2022-07-25T17:49:49.740Z,1.80
2022-07-25T17:54:55.602Z,1.45
2022-07-25T18:00:04.009Z,2.00
2022-07-25T18:05:17.477Z,1.50
2022-07-25T18:10:23.520Z,1.40
2022-07-25T18:15:31.956Z,1.35
2022-07-25T18:20:40.015Z,1.20
2022-07-25T18:25:47.031Z,1.45
2022-07-25T18:30:55.157Z,1.15
2022-07-25T18:36:05.515Z,1.20
2022-07-25T18:41:28.534Z,1.20
2022-07-25T18:46:37.925Z,1.13
2022-07-25T18:51:43.395Z,0.77
2022-07-25T18:56:48.889Z,1.17
2022-07-25T19:01:57.563Z,1.02
2022-07-25T19:07:03.213Z,1.10
2022-07-25T19:12:09.251Z,0.83
2022-07-25T19:17:17.227Z,0.93
2022-07-25T19:22:22.765Z,0.60
2022-07-25T19:27:29.012Z,0.70
2022-07-25T19:32:37.472Z,0.87
2022-07-25T19:37:43.199Z,0.85
2022-07-25T19:42:48.531Z,1.10
2022-07-25T19:47:56.847Z,0.70
2022-07-25T19:53:02.240Z,0.98
2022-07-25T19:58:08.528Z,0.73
2022-07-25T20:03:17.059Z,0.70
2022-07-25T20:08:29.134Z,0.70
2022-07-25T20:13:34.505Z,0.80
2022-07-25T20:18:43.125Z,1.10
2022-07-25T20:23:48.531Z,0.80
2022-07-25T20:28:54.008Z,0.70
2022-07-25T20:34:02.084Z,0.80
2022-07-25T20:39:08.023Z,0.77
2022-07-25T20:44:14.392Z,0.90
2022-07-25T20:49:22.628Z,0.68
2022-07-25T20:54:28.040Z,1.07
2022-07-25T20:59:33.432Z,0.88
2022-07-25T21:04:42.967Z,1.02
2022-07-25T21:09:48.329Z,0.80
2022-07-25T21:14:53.716Z,1.10
2022-07-25T21:20:01.701Z,0.75
2022-07-25T21:25:07.762Z,0.73
2022-07-25T21:30:14.296Z,0.60
2022-07-25T21:35:22.286Z,0.80
2022-07-25T21:40:28.560Z,0.65
2022-07-25T21:45:33.906Z,1.10
2022-07-25T21:50:43.785Z,0.70
2022-07-25T21:55:49.508Z,0.70
2022-07-25T22:00:55.230Z,0.63
2022-07-25T22:06:03.404Z,0.53
2022-07-25T22:11:20.837Z,0.90
2022-07-25T22:16:34.467Z,0.60
2022-07-25T22:21:42.870Z,0.63
2022-07-25T22:26:48.307Z,0.70
2022-07-25T22:31:53.831Z,0.60
2022-07-25T22:37:02.021Z,0.93
2022-07-25T22:42:07.999Z,0.88
2022-07-25T22:47:13.374Z,0.95
2022-07-25T22:52:21.704Z,0.73
2022-07-25T22:57:27.272Z,0.90
2022-07-25T23:02:32.672Z,0.80
2022-07-25T23:07:40.732Z,0.77
2022-07-25T23:12:46.895Z,1.00
2022-07-25T23:17:52.157Z,0.80
2022-07-25T23:23:00.149Z,0.93
2022-07-25T23:28:05.739Z,1.07
2022-07-25T23:33:11.345Z,1.20
2022-07-25T23:38:19.235Z,1.10
2022-07-25T23:43:51.152Z,1.30
2022-07-25T23:48:50.049Z,0.80
2022-07-25T23:53:58.751Z,1.13
2022-07-25T23:59:04.202Z,0.98
